createdAt,value
2017-08-10T00:02:08.541Z,65.40
2017-08-10T00:04:36.000Z,65.40
2017-08-10T00:07:03.453Z,65.30
2017-08-10T00:09:30.904Z,65.10
2017-08-10T00:11:58.352Z,65.20
2017-08-10T00:14:25.817Z,65.40
2017-08-10T00:16:53.270Z,65.30
2017-08-10T00:19:21.501Z,65.60
2017-08-10T00:21:48.957Z,65.60
2017-08-10T00:24:16.417Z,65.90
2017-08-10T00:26:43.876Z,66.90
2017-08-10T00:29:11.333Z,66.50
2017-08-10T00:31:38.799Z,66.20
2017-08-10T00:34:06.247Z,66.10
2017-08-10T00:36:33.721Z,66.10
2017-08-10T00:39:01.184Z,65.80
2017-08-10T00:41:28.641Z,66.40
2017-08-10T00:43:56.105Z,66.90
2017-08-10T00:46:23.548Z,66.70
2017-08-10T00:48:51.038Z,67.20
2017-08-10T00:51:18.487Z,67.30
2017-08-10T00:53:45.944Z,67.00
2017-08-10T00:56:13.397Z,67.10
2017-08-10T00:58:40.852Z,67.30
2017-08-10T01:01:09.073Z,67.70
2017-08-10T01:03:36.528Z,67.60
2017-08-10T01:06:03.977Z,67.60
2017-08-10T01:08:31.429Z,67.80
2017-08-10T01:10:58.889Z,67.90
2017-08-10T01:13:26.338Z,68.20
2017-08-10T01:15:54.578Z,68.90
2017-08-10T01:18:22.036Z,68.80
2017-08-10T01:20:49.508Z,69.70
2017-08-10T01:23:16.941Z,69.30
2017-08-10T01:25:44.405Z,69.50
2017-08-10T01:28:11.876Z,69.20
2017-08-10T01:30:39.365Z,69.20
2017-08-10T01:33:06.808Z,70.30
2017-08-10T01:35:34.268Z,69.80
2017-08-10T01:38:01.716Z,69.60
2017-08-10T01:40:29.164Z,69.60
2017-08-10T01:42:56.616Z,69.90
2017-08-10T01:45:24.838Z,70.20
2017-08-10T01:47:52.299Z,70.20
2017-08-10T01:50:19.756Z,71.00
2017-08-10T01:52:47.196Z,70.90
2017-08-10T01:55:14.649Z,70.90
2017-08-10T01:57:42.868Z,70.80
2017-08-10T02:00:10.330Z,70.80
2017-08-10T02:02:37.777Z,70.70
2017-08-10T02:05:05.240Z,70.90
2017-08-10T02:07:32.685Z,70.50
2017-08-10T02:10:00.148Z,70.70
2017-08-10T02:12:27.629Z,70.80
2017-08-10T02:14:55.473Z,70.60
2017-08-10T02:17:23.686Z,71.50
2017-08-10T02:19:51.137Z,70.70
2017-08-10T02:22:18.593Z,71.00
2017-08-10T02:24:46.080Z,70.80
2017-08-10T02:27:13.532Z,71.10
2017-08-10T02:29:40.995Z,71.50
2017-08-10T02:32:08.452Z,71.60
2017-08-10T02:34:35.913Z,71.70
2017-08-10T02:37:03.366Z,71.80
2017-08-10T02:39:30.829Z,72.00
2017-08-10T02:41:58.281Z,72.10
2017-08-10T02:44:26.489Z,72.10
2017-08-10T02:46:53.945Z,72.10
2017-08-10T02:49:21.412Z,72.30
2017-08-10T02:51:48.865Z,72.40
2017-08-10T02:54:16.312Z,72.50
2017-08-10T02:56:43.769Z,72.90
2017-08-10T02:59:11.979Z,73.00
2017-08-10T03:01:39.423Z,73.00
2017-08-10T03:04:06.886Z,73.10
2017-08-10T03:06:34.357Z,73.10
2017-08-10T03:09:01.812Z,73.30
2017-08-10T03:11:29.269Z,73.40
2017-08-10T03:13:56.730Z,73.40
2017-08-10T03:16:24.950Z,73.50
2017-08-10T03:18:52.429Z,73.50
2017-08-10T03:21:19.888Z,73.30
2017-08-10T03:23:47.338Z,73.30
2017-08-10T03:26:14.801Z,73.30
2017-08-10T03:28:42.253Z,73.40
2017-08-10T03:31:09.713Z,73.50
2017-08-10T03:33:37.161Z,73.50
2017-08-10T03:36:04.621Z,73.70
2017-08-10T03:38:32.078Z,73.80
2017-08-10T03:41:00.297Z,74.20
2017-08-10T03:43:27.744Z,74.10
2017-08-10T03:45:55.205Z,74.40
2017-08-10T03:48:22.668Z,74.50
2017-08-10T03:50:50.133Z,74.70
2017-08-10T03:53:17.592Z,75.20
2017-08-10T03:55:45.057Z,75.60
2017-08-10T03:58:12.504Z,75.50
2017-08-10T04:00:39.961Z,75.60
2017-08-10T04:03:08.149Z,75.60
2017-08-10T04:05:35.605Z,75.50
2017-08-10T04:08:03.053Z,75.40
2017-08-10T04:10:31.293Z,75.20
2017-08-10T04:12:58.753Z,75.20
2017-08-10T04:15:26.221Z,75.20
2017-08-10T04:17:53.681Z,75.00
2017-08-10T04:20:21.144Z,74.90
2017-08-10T04:22:48.609Z,74.80
2017-08-10T04:25:16.065Z,74.70
2017-08-10T04:27:43.521Z,74.70
2017-08-10T04:30:10.993Z,74.90
2017-08-10T04:32:38.448Z,75.00
2017-08-10T04:35:05.896Z,75.10
2017-08-10T04:37:33.356Z,74.90
2017-08-10T04:40:00.820Z,75.00
2017-08-10T04:42:28.285Z,75.00
2017-08-10T04:44:55.749Z,74.90
2017-08-10T04:47:23.209Z,74.90
2017-08-10T04:49:50.664Z,75.00
2017-08-10T04:52:18.126Z,75.00
2017-08-10T04:54:45.580Z,75.00
2017-08-10T04:57:13.440Z,74.90
2017-08-10T04:59:41.673Z,75.00
2017-08-10T05:02:09.130Z,75.00
2017-08-10T05:04:36.602Z,75.20
2017-08-10T05:07:04.056Z,75.10
2017-08-10T05:09:31.529Z,75.20
2017-08-10T05:11:58.989Z,75.20
2017-08-10T05:14:26.440Z,75.30
2017-08-10T05:16:53.900Z,75.30
2017-08-10T05:19:21.360Z,75.30
2017-08-10T05:21:48.817Z,75.20
2017-08-10T05:24:16.271Z,75.30
2017-08-10T05:26:43.724Z,75.50
2017-08-10T05:29:11.182Z,75.50
2017-08-10T05:31:38.640Z,75.50
2017-08-10T05:34:06.087Z,75.50
2017-08-10T05:36:34.336Z,76.20
2017-08-10T05:39:01.793Z,75.60
2017-08-10T05:41:29.252Z,75.50
2017-08-10T05:43:56.716Z,75.40
2017-08-10T05:46:24.177Z,75.50
2017-08-10T05:48:51.635Z,75.50
2017-08-10T05:51:19.105Z,75.50
2017-08-10T05:53:46.570Z,75.60
2017-08-10T05:56:14.020Z,75.50
2017-08-10T05:58:41.485Z,75.50
2017-08-10T06:01:08.948Z,75.60
2017-08-10T06:03:36.410Z,75.50
2017-08-10T06:06:03.876Z,75.70
2017-08-10T06:08:31.341Z,75.80
2017-08-10T06:10:58.807Z,75.90
2017-08-10T06:13:26.264Z,75.90
2017-08-10T06:15:53.729Z,76.10
2017-08-10T06:18:21.185Z,76.20
2017-08-10T06:20:48.640Z,76.20
2017-08-10T06:23:16.100Z,76.20
2017-08-10T06:25:43.544Z,76.20
2017-08-10T06:28:11.016Z,76.20
2017-08-10T06:30:38.464Z,76.30
2017-08-10T06:33:05.936Z,76.40
2017-08-10T06:35:33.387Z,76.40
2017-08-10T06:38:00.855Z,76.30
2017-08-10T06:40:28.305Z,76.40
2017-08-10T06:42:56.537Z,76.50
2017-08-10T06:45:23.987Z,76.50
2017-08-10T06:47:51.448Z,76.60
2017-08-10T06:50:18.917Z,76.50
2017-08-10T06:52:46.381Z,76.50
2017-08-10T06:55:13.857Z,76.60
2017-08-10T06:57:41.310Z,76.70
2017-08-10T07:00:08.786Z,76.80
2017-08-10T07:02:36.245Z,77.20
2017-08-10T07:05:03.696Z,77.40
2017-08-10T07:07:31.161Z,77.60
2017-08-10T07:09:58.636Z,77.60
2017-08-10T07:12:26.084Z,77.70
2017-08-10T07:14:53.544Z,77.70
2017-08-10T07:17:21.005Z,77.70
2017-08-10T07:19:48.456Z,77.70
2017-08-10T07:22:15.924Z,77.50
2017-08-10T07:24:43.388Z,77.60
2017-08-10T07:27:10.853Z,77.50
2017-08-10T07:29:38.305Z,77.40
2017-08-10T07:32:05.767Z,77.40
2017-08-10T07:34:33.230Z,77.60
2017-08-10T07:37:00.702Z,77.70
2017-08-10T07:39:28.165Z,77.60
2017-08-10T07:41:55.625Z,77.50
2017-08-10T07:44:23.085Z,77.50
2017-08-10T07:46:50.532Z,77.70
2017-08-10T07:49:18.004Z,77.80
2017-08-10T07:51:45.460Z,78.00
2017-08-10T07:54:12.916Z,77.80
2017-08-10T07:56:40.364Z,77.90
2017-08-10T07:59:08.584Z,78.00
2017-08-10T08:01:36.041Z,77.90
2017-08-10T08:04:03.505Z,78.10
2017-08-10T08:06:30.965Z,78.20
2017-08-10T08:08:58.402Z,78.30
2017-08-10T08:11:25.843Z,78.10
2017-08-10T08:13:53.300Z,78.10
2017-08-10T08:16:20.765Z,78.10
2017-08-10T08:18:48.228Z,78.20
2017-08-10T08:21:15.686Z,78.40
2017-08-10T08:23:43.140Z,78.40
2017-08-10T08:26:10.588Z,78.40
2017-08-10T08:28:38.035Z,78.40
2017-08-10T08:31:05.473Z,78.50
2017-08-10T08:33:32.937Z,78.50
2017-08-10T08:36:00.388Z,78.40
2017-08-10T08:38:28.613Z,78.70
2017-08-10T08:40:56.070Z,78.50
2017-08-10T08:43:23.524Z,78.70
2017-08-10T08:45:50.972Z,78.70
2017-08-10T08:48:18.432Z,78.80
2017-08-10T08:50:45.881Z,78.60
2017-08-10T08:53:14.113Z,78.80
2017-08-10T08:55:41.564Z,78.70
2017-08-10T08:58:09.017Z,78.80
2017-08-10T09:00:36.478Z,78.90
2017-08-10T09:03:03.953Z,78.90
2017-08-10T09:05:31.405Z,79.10
2017-08-10T09:07:58.853Z,79.10
2017-08-10T09:10:26.309Z,79.00
2017-08-10T09:12:53.764Z,79.10
2017-08-10T09:15:21.981Z,79.10
2017-08-10T09:17:49.433Z,79.00
2017-08-10T09:20:16.880Z,79.10
2017-08-10T09:22:44.341Z,79.00
2017-08-10T09:25:11.792Z,79.10
2017-08-10T09:27:40.019Z,79.20
2017-08-10T09:30:07.469Z,79.10
2017-08-10T09:32:34.920Z,79.10
2017-08-10T09:35:02.381Z,79.20
2017-08-10T09:37:29.820Z,79.20
2017-08-10T09:39:58.056Z,79.40
2017-08-10T09:42:25.500Z,79.40
2017-08-10T09:44:52.988Z,79.30
2017-08-10T09:47:20.434Z,79.30
2017-08-10T09:49:47.884Z,79.40
2017-08-10T09:52:15.345Z,79.40
2017-08-10T09:54:42.805Z,79.40
2017-08-10T09:57:10.266Z,79.40
2017-08-10T09:59:37.712Z,79.50
2017-08-10T10:02:05.165Z,79.60
2017-08-10T10:04:34.308Z,79.90
2017-08-10T10:07:01.761Z,79.80
2017-08-10T10:09:29.218Z,79.90
2017-08-10T10:11:56.680Z,79.90
2017-08-10T10:14:24.145Z,79.70
2017-08-10T10:16:51.601Z,79.70
2017-08-10T10:19:19.045Z,79.80
2017-08-10T10:21:47.252Z,79.80
2017-08-10T10:24:14.714Z,79.80
2017-08-10T10:26:42.161Z,79.70
2017-08-10T10:29:09.613Z,79.90
2017-08-10T10:31:37.828Z,80.00
2017-08-10T10:34:05.288Z,79.90
2017-08-10T10:36:32.742Z,79.90
2017-08-10T10:39:00.170Z,79.90
2017-08-10T10:41:28.383Z,79.70
2017-08-10T10:43:55.826Z,79.70
2017-08-10T10:46:23.282Z,79.70
2017-08-10T10:48:51.490Z,79.80
2017-08-10T10:51:18.957Z,79.80
2017-08-10T10:53:46.416Z,79.70
2017-08-10T10:56:13.876Z,79.70
2017-08-10T10:58:41.334Z,79.50
2017-08-10T11:01:08.780Z,79.50
2017-08-10T11:03:36.233Z,79.70
2017-08-10T11:06:04.457Z,79.70
2017-08-10T11:08:31.913Z,79.50
2017-08-10T11:10:59.357Z,79.70
2017-08-10T11:13:26.812Z,79.70
2017-08-10T11:15:54.274Z,79.80
2017-08-10T11:18:21.730Z,79.70
2017-08-10T11:20:49.965Z,79.70
2017-08-10T11:23:17.409Z,79.70
2017-08-10T11:25:44.868Z,79.50
2017-08-10T11:28:12.312Z,79.60
2017-08-10T11:30:39.768Z,79.70
2017-08-10T11:33:10.605Z,79.70
2017-08-10T11:35:38.825Z,80.00
2017-08-10T11:38:06.281Z,79.90
2017-08-10T11:40:33.741Z,80.00
2017-08-10T11:43:01.185Z,79.90
2017-08-10T11:45:28.637Z,79.90
2017-08-10T11:47:56.092Z,79.80
2017-08-10T11:50:24.307Z,80.10
2017-08-10T11:52:51.760Z,80.00
2017-08-10T11:55:19.216Z,80.20
2017-08-10T11:57:46.678Z,80.10
2017-08-10T12:00:14.129Z,80.20
2017-08-10T12:02:41.581Z,80.20
2017-08-10T12:05:09.802Z,80.20
2017-08-10T12:07:37.267Z,80.30
2017-08-10T12:10:04.724Z,80.10
2017-08-10T12:12:32.168Z,79.80
2017-08-10T12:14:59.618Z,79.80
2017-08-10T12:17:27.836Z,79.80
2017-08-10T12:19:55.287Z,79.80
2017-08-10T12:22:22.737Z,79.70
2017-08-10T12:24:50.193Z,79.60
2017-08-10T12:27:17.654Z,79.60
2017-08-10T12:29:45.865Z,79.90
2017-08-10T12:32:13.333Z,79.90
2017-08-10T12:34:40.785Z,79.90
2017-08-10T12:37:08.242Z,80.00
2017-08-10T12:39:35.698Z,80.00
2017-08-10T12:42:03.145Z,80.00
2017-08-10T12:44:31.361Z,79.80
2017-08-10T12:46:58.817Z,79.80
2017-08-10T12:49:26.260Z,79.80
2017-08-10T12:51:53.714Z,79.80
2017-08-10T12:54:21.169Z,79.50
2017-08-10T12:56:49.393Z,79.60
2017-08-10T12:59:16.842Z,79.60
2017-08-10T13:01:44.300Z,79.60
2017-08-10T13:04:11.769Z,79.60
2017-08-10T13:06:39.223Z,79.50
2017-08-10T13:09:06.677Z,79.50
2017-08-10T13:11:34.121Z,79.50
2017-08-10T13:14:02.362Z,79.50
2017-08-10T13:16:29.820Z,79.40
2017-08-10T13:18:57.273Z,79.50
2017-08-10T13:21:24.719Z,79.60
2017-08-10T13:23:52.168Z,79.70
2017-08-10T13:26:19.620Z,79.70
2017-08-10T13:28:47.076Z,79.60
2017-08-10T13:31:15.297Z,79.70
2017-08-10T13:33:42.754Z,79.70
2017-08-10T13:36:10.213Z,79.80
2017-08-10T13:38:37.671Z,79.70
2017-08-10T13:41:05.130Z,79.70
2017-08-10T13:43:32.581Z,79.70
2017-08-10T13:46:00.805Z,79.70
2017-08-10T13:48:28.252Z,79.70
2017-08-10T13:50:55.724Z,79.70
2017-08-10T13:53:23.168Z,79.70
2017-08-10T13:55:50.625Z,79.80
2017-08-10T13:58:18.072Z,79.70
2017-08-10T14:00:45.520Z,79.70
2017-08-10T14:03:13.736Z,79.70
2017-08-10T14:05:41.208Z,79.60
2017-08-10T14:08:08.661Z,79.80
2017-08-10T14:10:36.109Z,79.90
2017-08-10T14:13:03.563Z,79.80
2017-08-10T14:15:31.789Z,79.80
2017-08-10T14:17:59.257Z,79.70
2017-08-10T14:20:26.712Z,79.70
2017-08-10T14:22:54.248Z,79.70
2017-08-10T14:25:21.695Z,79.70
2017-08-10T14:27:49.892Z,79.50
2017-08-10T14:30:17.349Z,79.50
2017-08-10T14:32:44.793Z,79.50
2017-08-10T14:35:13.021Z,79.50
2017-08-10T14:37:40.464Z,79.50
2017-08-10T14:40:07.922Z,79.50
2017-08-10T14:42:35.365Z,79.50
2017-08-10T14:45:02.824Z,79.50
2017-08-10T14:47:31.037Z,79.20
2017-08-10T14:49:58.497Z,79.20
2017-08-10T14:52:25.958Z,79.30
2017-08-10T14:54:53.413Z,79.20
2017-08-10T14:57:20.873Z,79.20
2017-08-10T14:59:48.334Z,78.90
2017-08-10T15:02:15.793Z,79.00
2017-08-10T15:04:43.248Z,79.00
2017-08-10T15:07:11.497Z,79.10
2017-08-10T15:09:38.950Z,79.00
2017-08-10T15:12:06.397Z,79.70
2017-08-10T15:14:33.852Z,79.10
2017-08-10T15:17:01.312Z,79.10
2017-08-10T15:19:28.772Z,79.20
2017-08-10T15:21:56.233Z,79.20
2017-08-10T15:24:23.688Z,79.20
2017-08-10T15:26:51.144Z,79.10
2017-08-10T15:29:18.617Z,79.20
2017-08-10T15:31:46.095Z,79.20
2017-08-10T15:34:13.541Z,79.20
2017-08-10T15:36:40.999Z,79.30
2017-08-10T15:39:08.481Z,79.30
2017-08-10T15:41:35.957Z,79.20
2017-08-10T15:44:03.444Z,79.20
2017-08-10T15:46:30.925Z,79.20
2017-08-10T15:48:59.178Z,79.20
2017-08-10T15:51:26.642Z,79.20
2017-08-10T15:53:54.137Z,79.20
2017-08-10T15:56:22.408Z,79.20
2017-08-10T15:58:50.639Z,79.20
2017-08-10T16:01:18.101Z,79.20
2017-08-10T16:03:45.622Z,79.10
2017-08-10T16:06:13.902Z,79.20
2017-08-10T16:08:42.188Z,79.90
2017-08-10T16:11:10.462Z,79.20
2017-08-10T16:13:38.707Z,79.30
2017-08-10T16:16:06.183Z,79.20
2017-08-10T16:18:33.709Z,79.30
2017-08-10T16:21:01.191Z,80.00
2017-08-10T16:23:28.652Z,79.40
2017-08-10T16:25:56.096Z,79.40
2017-08-10T16:28:23.557Z,79.50
2017-08-10T16:30:51.018Z,79.70
2017-08-10T16:33:18.462Z,79.80
2017-08-10T16:35:45.937Z,79.70
2017-08-10T16:38:13.400Z,79.60
2017-08-10T16:40:40.852Z,79.70
2017-08-10T16:43:08.325Z,79.80
2017-08-10T16:45:35.792Z,79.80
2017-08-10T16:48:03.260Z,79.70
2017-08-10T16:50:30.716Z,79.70
2017-08-10T16:52:58.177Z,79.80
2017-08-10T16:55:25.633Z,79.80
2017-08-10T16:57:53.102Z,80.00
2017-08-10T17:00:20.557Z,80.00
2017-08-10T17:02:48.013Z,80.00
2017-08-10T17:08:08.456Z,80.00
2017-08-10T17:10:35.944Z,80.00
2017-08-10T17:13:03.411Z,80.10
2017-08-10T17:15:30.869Z,80.20
2017-08-10T17:17:58.360Z,80.20
2017-08-10T17:20:25.799Z,80.30
2017-08-10T17:22:53.262Z,80.30
2017-08-10T17:25:20.721Z,80.40
2017-08-10T17:27:48.196Z,80.40
2017-08-10T17:30:15.641Z,80.50
2017-08-10T17:32:43.088Z,80.50
2017-08-10T17:35:10.571Z,80.50
2017-08-10T17:37:38.050Z,80.50
2017-08-10T17:40:05.517Z,80.60
2017-08-10T17:42:32.952Z,80.60
2017-08-10T17:45:00.440Z,80.60
2017-08-10T17:47:27.931Z,80.60
2017-08-10T17:49:55.405Z,80.60
2017-08-10T17:52:23.641Z,81.10
2017-08-10T17:54:51.097Z,80.70
2017-08-10T17:57:19.354Z,80.70
2017-08-10T17:59:46.824Z,80.70
2017-08-10T18:02:14.276Z,80.70
2017-08-10T18:04:41.746Z,80.70
2017-08-10T18:07:09.671Z,80.80
2017-08-10T18:09:37.125Z,80.70
2017-08-10T18:12:05.511Z,80.80
2017-08-10T18:14:34.147Z,80.90
2017-08-10T18:17:02.377Z,81.00
2017-08-10T18:19:29.880Z,81.00
2017-08-10T18:21:58.481Z,81.40
2017-08-10T18:24:27.570Z,81.00
2017-08-10T18:26:55.788Z,81.00
2017-08-10T18:29:23.277Z,81.00
2017-08-10T18:31:50.723Z,81.10
2017-08-10T18:34:18.187Z,81.10
2017-08-10T18:36:45.659Z,81.00
2017-08-10T18:39:13.725Z,81.00
2017-08-10T18:41:41.193Z,80.90
2017-08-10T18:44:08.665Z,81.00
2017-08-10T18:46:36.148Z,81.00
2017-08-10T18:49:03.601Z,81.10
2017-08-10T18:51:31.609Z,81.00
2017-08-10T18:53:59.077Z,81.20
2017-08-10T18:56:26.565Z,81.00
2017-08-10T18:58:54.028Z,81.00
2017-08-10T19:01:21.518Z,80.90
2017-08-10T19:03:48.962Z,80.90
2017-08-10T19:06:16.470Z,81.00
2017-08-10T19:08:44.684Z,80.50
2017-08-10T19:11:12.129Z,81.00
2017-08-10T19:13:39.587Z,81.00
2017-08-10T19:16:07.800Z,81.20
2017-08-10T19:18:35.279Z,81.20
2017-08-10T19:21:02.700Z,81.20
2017-08-10T19:23:30.185Z,81.20
2017-08-10T19:25:57.628Z,81.20
2017-08-10T19:28:25.098Z,81.20
2017-08-10T19:30:52.559Z,81.20
2017-08-10T19:33:20.006Z,81.30
2017-08-10T19:35:47.468Z,81.20
2017-08-10T19:38:14.936Z,81.30
2017-08-10T19:40:43.153Z,81.50
2017-08-10T19:43:10.609Z,81.50
2017-08-10T19:45:38.069Z,81.60
2017-08-10T19:48:05.534Z,81.60
2017-08-10T19:50:32.995Z,81.60
2017-08-10T19:53:00.438Z,81.60
2017-08-10T19:55:27.917Z,81.50
2017-08-10T19:57:55.372Z,81.50
2017-08-10T20:00:22.834Z,81.60
2017-08-10T20:02:50.288Z,81.50
2017-08-10T20:05:17.749Z,81.50
2017-08-10T20:07:45.209Z,81.60
2017-08-10T20:10:12.669Z,81.60
2017-08-10T20:12:40.130Z,81.50
2017-08-10T20:15:08.348Z,81.60
2017-08-10T20:17:35.816Z,81.50
2017-08-10T20:20:03.282Z,81.60
2017-08-10T20:22:30.733Z,81.60
2017-08-10T20:24:58.193Z,81.40
2017-08-10T20:27:25.642Z,81.40
2017-08-10T20:29:53.109Z,81.40
2017-08-10T20:32:20.569Z,81.50
2017-08-10T20:34:48.033Z,81.60
2017-08-10T20:37:15.484Z,81.60
2017-08-10T20:39:42.945Z,81.80
2017-08-10T20:42:10.401Z,81.80
2017-08-10T20:44:37.865Z,81.60
2017-08-10T20:47:07.205Z,81.50
2017-08-10T20:49:34.665Z,81.60
2017-08-10T20:52:02.134Z,81.80
2017-08-10T20:54:29.597Z,81.90
2017-08-10T20:56:57.057Z,81.90
2017-08-10T20:59:24.521Z,81.90
2017-08-10T21:01:51.976Z,82.00
2017-08-10T21:04:19.446Z,81.90
2017-08-10T21:06:46.908Z,82.00
2017-08-10T21:09:17.613Z,82.00
2017-08-10T21:11:45.069Z,82.20
2017-08-10T21:14:12.520Z,82.20
2017-08-10T21:16:40.748Z,82.00
2017-08-10T21:19:08.208Z,81.90
2017-08-10T21:21:35.672Z,82.00
2017-08-10T21:24:03.128Z,81.80
2017-08-10T21:26:30.585Z,81.90
2017-08-10T21:28:58.049Z,81.90
2017-08-10T21:31:25.506Z,81.90
2017-08-10T21:33:52.976Z,81.90
2017-08-10T21:36:20.438Z,82.00
2017-08-10T21:38:48.815Z,81.90
2017-08-10T21:41:16.278Z,81.90
2017-08-10T21:43:43.741Z,81.90
2017-08-10T21:46:11.200Z,81.80
2017-08-10T21:48:38.667Z,81.80
2017-08-10T21:51:06.125Z,81.80
2017-08-10T21:53:33.582Z,81.80
2017-08-10T21:56:01.044Z,81.90
2017-08-10T21:58:28.513Z,81.90
2017-08-10T22:00:55.971Z,82.00
2017-08-10T22:03:23.424Z,82.00
2017-08-10T22:05:50.889Z,82.10
2017-08-10T22:08:18.355Z,82.20
2017-08-10T22:10:46.572Z,82.10
2017-08-10T22:13:14.036Z,82.10
2017-08-10T22:15:41.492Z,82.20
2017-08-10T22:18:08.953Z,82.20
2017-08-10T22:20:36.424Z,82.20
2017-08-10T22:23:03.889Z,82.10
2017-08-10T22:25:31.345Z,82.30
2017-08-10T22:27:58.805Z,82.20
2017-08-10T22:30:26.268Z,82.20
2017-08-10T22:32:53.733Z,82.20
2017-08-10T22:35:21.187Z,82.30
2017-08-10T22:37:48.649Z,82.30
2017-08-10T22:40:16.104Z,82.30
2017-08-10T22:42:43.616Z,82.40
2017-08-10T22:45:11.085Z,82.50
2017-08-10T22:47:38.537Z,82.50
2017-08-10T22:50:06.821Z,82.40
2017-08-10T22:52:34.276Z,82.40
2017-08-10T22:55:01.743Z,82.70
2017-08-10T22:57:29.201Z,82.70
2017-08-10T22:59:56.673Z,82.50
2017-08-10T23:02:24.118Z,82.50
2017-08-10T23:04:51.582Z,82.30
2017-08-10T23:07:19.070Z,82.30
2017-08-10T23:09:46.524Z,82.20
2017-08-10T23:12:13.994Z,82.20
2017-08-10T23:14:41.440Z,82.20
2017-08-10T23:17:08.903Z,82.20
2017-08-10T23:19:36.333Z,82.10
2017-08-10T23:22:03.803Z,82.00
2017-08-10T23:24:31.261Z,82.00
2017-08-10T23:26:58.724Z,81.90
2017-08-10T23:29:26.189Z,81.90
2017-08-10T23:31:53.650Z,81.80
2017-08-10T23:34:21.104Z,81.80
2017-08-10T23:36:48.553Z,81.90
2017-08-10T23:39:16.022Z,81.90
2017-08-10T23:41:43.472Z,82.00
2017-08-10T23:44:10.937Z,82.00
2017-08-10T23:46:38.405Z,81.90
2017-08-10T23:49:05.857Z,81.90
2017-08-10T23:51:33.333Z,81.90
2017-08-10T23:54:00.799Z,81.80
2017-08-10T23:56:28.252Z,81.80
2017-08-10T23:58:55.705Z,81.80
